AirNav   Free Bose QuietComfort 20
 
 576 users online  

AA07 Saddleback Island Heliport
Big Lake, Alaska, USA

GOING TO BIG LAKE?


FAA INFORMATION EFFECTIVE 05 DECEMBER 2019

Location

FAA Identifier: AA07
Lat/Long: 61-31-17.6700N 149-55-37.7000W
61-31.294500N 149-55.628333W
61.5215750,-149.9271389
(estimated)
Elevation: 150 ft. / 46 m (estimated)
From city: 4 miles E of BIG LAKE, AK
Time zone: UTC -9 (UTC -8 during Daylight Saving Time)
Zip code: 99567

Heliport Operations

Heliport use: Private use. Permission required prior to landing
Activation date: 10/2008
Control tower: no
ARTCC: ANCHORAGE CENTER
FSS: KENAI FLIGHT SERVICE STATION [907-283-7211]
Attendance: UNATNDD
Segmented circle: no

Heliport Communications

CTAF/UNICOM: 122.8
WX AWOS-3P at IYS (11 nm E): 135.25 (907-373-3801)
WX AWOS-3P at BCV (14 nm SE): 135.55 (907-688-0826)
WX ASOS at FRN (17 nm SE): 125.0 (907-384-0132)
WX ASOS at MRI (19 nm S): 124.25 (907-271-5277)

Nearby radio navigation aids

VOR radial/distance  VOR name  Freq  Var
BGQr139/3.1BIG LAKE VORTAC112.5019E
TEDr345/21.2ANCHORAGE VOR/DME113.1518E

 
NDB name  Hdg/Dist  Freq  Var  ID
CAMPBELL LAKE353/21.333816ECMQ -.-. -- --.-

Heliport Services

Runway Information

Helipad H1

Dimensions: 50 x 50 ft. / 15 x 15 m
Surface: mats
Traffic pattern: leftleft

Heliport Ownership and Management from official FAA records

Ownership: Privately-owned
Owner: NORTHERN FORTITUDE, LLC
7901 SCHUSS CIRCLE
ANCHORAGE, AK 99507
Phone (818) 523-5373
Manager: NORTHERN FORTITUDE, LLC
7901 SCHUSS CIRCLE
ANCHORAGE, AK 99507
Phone (818) 523-5373
REG MEMBERS LUKE DAOMING LIU AND MICHELE LIYOMI LIU

Instrument Procedures

There are no published instrument procedures at AA07.

Some nearby airports with instrument procedures:

PAGQ - Big Lake Airport (3 nm E)
PAWS - Wasilla Airport (11 nm E)
PAUO - Willow Airport (14 nm N)
PAED - Elmendorf Air Force Base (17 nm S)
PAFR - Bryant Army Airfield Heliport (17 nm SE)
PAMR - Merrill Field Airport (19 nm S)
 
Loc | Ops | Rwys | IFR | FBO | Links
Com | Nav | Svcs | Stats | Notes

Crowley
 
Aerial photo
No photo
 
Sectional chart

 
Airport distance calculator
Flying to Saddleback Island Heliport? Find the distance to fly.

From to AA07

Sunrise and sunset
Times for 07-Dec-2019
 Local
(UTC-9)
 Zulu
(UTC)
Morning civil twilight09:0118:01
Sunrise10:0219:02
Sunset15:4100:41
Evening civil twilight16:4201:42

Current date and time
Zulu (UTC)  08-Dec-2019 04:15:11
Local (UTC-9)  07-Dec-2019 19:15:11
 
METAR
PABV 
13nm SE 
080356Z AUTO VRB03KT 10SM CLR M01/M02 A2929 RMK AO2 SLP923 T10061022 FZRANO
PAED 
17nm S 
080356Z 00000KT 10SM BKN100 OVC140 M02/M03 A2928 RMK AO2A SLP913 T10191033 $
PAFR 
17nm SE 
080358Z AUTO 28006KT 10SM SCT110 BKN140 BKN220 M01/M03 A2924 RMK AO2 SLP912 T10151027 FZRANO $
PAMR 
18nm S 
080353Z 28003KT 10SM BKN110 M01/M04 A2928 RMK AO2 SLP917 T10111039 $
PALH 
20nm S 
080353Z VRB03KT 10SM OVC100 M01/M03 A2929 RMK AO2 SLP920 T10061033
PANC 
21nm S 
080353Z 36003KT 10SM SCT085 OVC100 01/M02 A2928 RMK AO2 SLP918 4/005 T00111022
PAAQ 
25nm E 
080353Z AUTO 35012G16KT 10SM FEW075 04/M02 A2934 RMK AO2 SLP937 T00441017 TSNO
TAF
PAED 
17nm S 
072200Z 0722/0901 34009KT 9999 BKN090 620907 530109 QNH2930INS BECMG 0805/0806 17012KT 8000 -RASN FEW040 BKN080 640803 530307 QNH2925INS BECMG 0811/0812 17012G18KT 8000 -RA SCT020 BKN030 BKN050 650308 530307 QNH2960INS BECMG 0817/0818 09009KT 9999 NSW FEW020 QNH2965INS TX02/0815Z TNM03/0722Z
NOTAMs
Click for the latest NOTAMs
NOTAMs are issued by the DoD/FAA and will open in a separate window not controlled by AirNav.

 

 
 

Would you like to see your business listed on this page?

 If your business provides an interesting product or service to pilots, flight crews, aircraft, or users of the Saddleback Island Heliport, you should consider listing it here.  To start the listing process, click on the button below
 
Add a business
 

Other Pages about Saddleback Island Heliport

Update a link
 
Copyright © AirNav, LLC. All rights reserved. Privacy Policy  Contact